| time (UTC) | temp F | wind direction | speed knots | gust knots | rain 1hr in | rain 24hr in | rain mn in | humidity % | barometer mb |
| 20260505022549 | 47 | 350 | 1.7 | 7.0 | 0.00 | 0.09 | 0.09 | 81 | 1010.8 |
| 20260505022050 | 47 | 0 | 0.0 | 4.3 | 0.00 | 0.09 | 0.09 | 80 | 1010.8 |
| 20260505021601 | 47 | 0 | 0.0 | 4.3 | 0.00 | 0.09 | 0.09 | 77 | 1010.8 |
| 20260505021046 | 47 | 0 | 0.9 | 8.7 | 0.00 | 0.09 | 0.09 | 77 | 1010.8 |
| 20260505020547 | 47 | 0 | 1.7 | 8.7 | 0.01 | 0.09 | 0.09 | 77 | 1010.9 |
| 20260505020052 | 47 | 5 | 0.0 | 7.8 | 0.02 | 0.09 | 0.09 | 79 | 1011.0 |
| 20260505015547 | 47 | 5 | 1.7 | 11.3 | 0.03 | 0.09 | 0.09 | 78 | 1011.1 |
| 20260505015048 | 47 | 5 | 2.6 | 11.3 | 0.04 | 0.09 | 0.09 | 79 | 1011.0 |
| 20260505014555 | 46 | 5 | 2.6 | 9.6 | 0.05 | 0.09 | 0.09 | 81 | 1011.0 |
| 20260505014046 | 46 | 5 | 2.6 | 10.4 | 0.06 | 0.09 | 0.09 | 83 | 1010.9 |
| 20260505013547 | 45 | 10 | 2.6 | 10.4 | 0.07 | 0.09 | 0.09 | 85 | 1010.8 |
| 20260505013052 | 45 | 32 | 0.0 | 3.5 | 0.08 | 0.09 | 0.09 | 87 | 1010.9 |
| 20260505012547 | 45 | 0 | 0.0 | 5.2 | 0.08 | 0.09 | 0.09 | 87 | 1011.0 |
| 20260505012047 | 45 | 0 | 2.6 | 5.2 | 0.09 | 0.09 | 0.09 | 87 | 1011.0 |
| 20260505011557 | 45 | 32 | 0.0 | 5.2 | 0.09 | 0.09 | 0.09 | 87 | 1011.0 |
| 20260505011046 | 45 | 0 | 0.0 | 11.3 | 0.09 | 0.09 | 0.09 | 87 | 1011.1 |
| 20260505010546 | 45 | 0 | 4.3 | 11.3 | 0.08 | 0.08 | 0.08 | 86 | 1011.3 |
| 20260505010100 | 45 | 34 | 1.7 | 8.7 | 0.07 | 0.07 | 0.07 | 86 | 1011.5 |
| 20260505005548 | 45 | 0 | 1.7 | 9.6 | 0.06 | 0.06 | 0.06 | 84 | 1011.5 |
| 20260505005046 | 45 | 0 | 3.5 | 12.2 | 0.05 | 0.05 | 0.05 | 83 | 1011.5 |
| 20260505004550 | 46 | 36 | 6.1 | 15.6 | 0.04 | 0.04 | 0.04 | 82 | 1011.6 |
| 20260505004046 | 46 | 28 | 4.3 | 17.4 | 0.03 | 0.03 | 0.03 | 80 | 1011.5 |
| 20260505003550 | 47 | 25 | 7.0 | 17.4 | 0.02 | 0.02 | 0.02 | 77 | 1011.5 |
| 20260505003048 | 47 | 49 | 8.7 | 17.4 | 0.01 | 0.01 | 0.01 | 74 | 1011.4 |
| 20260505002547 | 49 | 0 | 10.4 | 19.1 | 0.01 | 0.01 | 0.01 | 69 | 1011.3 |
| 20260505002047 | 50 | 49 | 7.8 | 19.1 | 0.00 | 0.00 | 0.00 | 67 | 1011.4 |
| 20260505001551 | 53 | 51 | 4.3 | 13.9 | 0.00 | 0.00 | 0.00 | 58 | 1011.1 |
| 20260505001046 | 54 | 17 | 2.6 | 13.0 | 0.00 | 0.00 | 0.00 | 56 | 1010.9 |
| 20260505000546 | 55 | 28 | 5.2 | 13.0 | 0.00 | 0.00 | 0.00 | 54 | 1010.8 |
| 20260505000101 | 55 | 112 | 0.9 | 6.1 | 0.00 | 0.00 | 0.00 | 53 | 1010.7 |
| 20260504235547 | 56 | 0 | 0.0 | 5.2 | 0.00 | 0.00 | 0.00 | 53 | 1010.5 |
| 20260504235050 | 56 | 0 | 0.0 | 5.2 | 0.00 | 0.00 | 0.00 | 53 | 1010.4 |
| 20260504234604 | 57 | 0 | 0.0 | 4.3 | 0.00 | 0.00 | 0.00 | 52 | 1010.3 |
| 20260504234050 | 57 | 0 | 0.0 | 3.5 | 0.00 | 0.00 | 0.00 | 52 | 1010.3 |
| 20260504233547 | 57 | 0 | 0.0 | 4.3 | 0.00 | 0.00 | 0.00 | 50 | 1010.3 |
| 20260504233051 | 57 | 0 | 0.0 | 4.3 | 0.00 | 0.00 | 0.00 | 51 | 1010.3 |
| 20260504232547 | 57 | 134 | 0.9 | 4.3 | 0.00 | 0.00 | 0.00 | 51 | 1010.2 |
| 20260504232047 | 58 | 0 | 0.0 | 0.0 | 0.00 | 0.00 | 0.00 | 49 | 1010.3 |
| 20260504231552 | 58 | 0 | 0.0 | 0.9 | 0.00 | 0.00 | 0.00 | 50 | 1010.3 |
| 20260504231047 | 57 | 0 | 0.0 | 4.3 | 0.00 | 0.00 | 0.00 | 50 | 1010.3 |
| 20260504230547 | 57 | 134 | 0.0 | 4.3 | 0.00 | 0.00 | 0.00 | 47 | 1010.3 |
| 20260504230052 | 57 | 0 | 0.0 | 7.8 | 0.00 | 0.00 | 0.00 | 46 | 1010.2 |
| 20260504225547 | 57 | 0 | 1.7 | 7.8 | 0.00 | 0.00 | 0.00 | 46 | 1010.3 |
| 20260504225050 | 58 | 0 | 0.0 | 7.0 | 0.00 | 0.00 | 0.00 | 46 | 1010.1 |
| 20260504224550 | 58 | 128 | 0.9 | 6.1 | 0.00 | 0.00 | 0.00 | 45 | 1010.1 |
| 20260504224047 | 58 | 0 | 0.9 | 6.1 | 0.00 | 0.00 | 0.00 | 44 | 1009.9 |
| 20260504223547 | 58 | 0 | 0.0 | 2.6 | 0.00 | 0.00 | 0.00 | 45 | 1009.9 |
| 20260504223052 | 59 | 0 | 0.0 | 0.0 | 0.00 | 0.00 | 0.00 | 44 | 1009.9 |
| 20260504222547 | 58 | 0 | 0.0 | 2.6 | 0.00 | 0.00 | 0.00 | 43 | 1010.0 |
| 20260504222051 | 58 | 0 | 0.0 | 5.2 | 0.00 | 0.00 | 0.00 | 42 | 1009.7 |
| 20260504221551 | 58 | 0 | 0.0 | 10.4 | 0.00 | 0.00 | 0.00 | 42 | 1009.7 |
| 20260504221047 | 58 | 105 | 1.7 | 10.4 | 0.00 | 0.00 | 0.00 | 41 | 1009.4 |
| 20260504220547 | 58 | 0 | 0.9 | 7.0 | 0.00 | 0.00 | 0.00 | 42 | 1009.4 |
| 20260504220100 | 59 | 145 | 0.9 | 8.7 | 0.00 | 0.00 | 0.00 | 42 | 1009.4 |
| 20260504215547 | 59 | 0 | 0.9 | 8.7 | 0.00 | 0.00 | 0.00 | 42 | 1009.3 |
| 20260504215049 | 59 | 0 | 0.0 | 10.4 | 0.00 | 0.00 | 0.00 | 42 | 1009.4 |
| 20260504214600 | 59 | 168 | 3.5 | 10.4 | 0.00 | 0.00 | 0.00 | 41 | 1009.4 |
| 20260504214048 | 60 | 152 | 0.9 | 8.7 | 0.00 | 0.00 | 0.00 | 41 | 1009.1 |
| 20260504213547 | 60 | 109 | 0.9 | 7.8 | 0.00 | 0.00 | 0.00 | 41 | 1009.2 |
| 20260504213112 | 59 | 107 | 1.7 | 7.8 | 0.00 | 0.00 | 0.00 | 42 | 1009.2 |
| 20260504212548 | 58 | 0 | 0.0 | 4.3 | 0.00 | 0.00 | 0.00 | 43 | 1009.4 |
| 20260504212046 | 58 | 89 | 0.0 | 6.1 | 0.00 | 0.00 | 0.00 | 43 | 1009.6 |
| 20260504211558 | 57 | 0 | 0.9 | 6.1 | 0.00 | 0.00 | 0.00 | 43 | 1009.6 |
| 20260504211048 | 57 | 0 | 0.0 | 9.6 | 0.00 | 0.00 | 0.00 | 43 | 1009.6 |
| 20260504210551 | 57 | 0 | 1.7 | 9.6 | 0.00 | 0.00 | 0.00 | 43 | 1009.5 |
| 20260504210105 | 57 | 78 | 1.7 | 11.3 | 0.00 | 0.00 | 0.00 | 43 | 1009.5 |
| 20260504205547 | 58 | 82 | 2.6 | 14.8 | 0.00 | 0.00 | 0.00 | 39 | 1009.5 |
| 20260504205048 | 59 | 53 | 2.6 | 14.8 | 0.00 | 0.00 | 0.00 | 37 | 1009.6 |
| 20260504204604 | 59 | 63 | 4.3 | 11.3 | 0.00 | 0.00 | 0.00 | 34 | 1009.5 |
| 20260504204049 | 60 | 46 | 0.9 | 10.4 | 0.00 | 0.00 | 0.00 | 32 | 1009.5 |
| 20260504203547 | 61 | 0 | 3.5 | 13.9 | 0.00 | 0.00 | 0.00 | 31 | 1009.4 |
| 20260504203057 | 62 | 72 | 3.5 | 13.9 | 0.00 | 0.00 | 0.00 | 30 | 1009.3 |
| 20260504202548 | 62 | 0 | 2.6 | 13.9 | 0.00 | 0.00 | 0.00 | 29 | 1009.3 |
| 20260504202048 | 63 | 78 | 1.7 | 20.9 | 0.00 | 0.00 | 0.00 | 29 | 1009.3 |
| 20260504201556 | 64 | 11 | 8.7 | 20.9 | 0.00 | 0.00 | 0.00 | 28 | 1008.9 |
| 20260504201047 | 65 | 9 | 9.6 | 16.5 | 0.00 | 0.00 | 0.00 | 26 | 1008.9 |
| 20260504200548 | 65 | 19 | 10.4 | 20.0 | 0.00 | 0.00 | 0.00 | 26 | 1009.0 |
| 20260504200058 | 66 | 28 | 7.8 | 22.6 | 0.00 | 0.00 | 0.00 | 26 | 1009.1 |
| 20260504195547 | 67 | 54 | 11.3 | 22.6 | 0.00 | 0.00 | 0.00 | 24 | 1009.1 |
| 20260504195048 | 67 | 352 | 7.0 | 17.4 | 0.00 | 0.00 | 0.00 | 25 | 1009.2 |
| 20260504194558 | 66 | 24 | 2.6 | 18.2 | 0.00 | 0.00 | 0.00 | 27 | 1009.2 |
| 20260504194047 | 66 | 0 | 7.8 | 26.1 | 0.00 | 0.00 | 0.00 | 26 | 1009.3 |
| 20260504193547 | 66 | 26 | 13.9 | 26.1 | 0.00 | 0.00 | 0.00 | 26 | 1009.2 |
| 20260504193104 | 66 | 17 | 7.0 | 14.8 | 0.00 | 0.00 | 0.00 | 26 | 1009.3 |
| 20260504192548 | 66 | 52 | 2.6 | 20.0 | 0.00 | 0.00 | 0.00 | 26 | 1009.2 |
| 20260504192050 | 65 | 36 | 7.0 | 20.0 | 0.00 | 0.00 | 0.00 | 27 | 1009.2 |
| 20260504191553 | 65 | 32 | 6.1 | 15.6 | 0.00 | 0.00 | 0.00 | 28 | 1009.2 |
| 20260504191047 | 64 | 46 | 2.6 | 13.9 | 0.00 | 0.00 | 0.00 | 30 | 1009.3 |
| 20260504190547 | 64 | 42 | 5.2 | 14.8 | 0.00 | 0.00 | 0.00 | 32 | 1009.4 |
| 20260504190054 | 63 | 62 | 4.3 | 18.2 | 0.00 | 0.00 | 0.00 | 32 | 1009.3 |
| 20260504185547 | 63 | 32 | 4.3 | 18.2 | 0.00 | 0.00 | 0.00 | 32 | 1009.5 |
| 20260504185048 | 63 | 33 | 6.1 | 18.2 | 0.00 | 0.00 | 0.00 | 31 | 1009.5 |
| 20260504184556 | 63 | 28 | 3.5 | 14.8 | 0.00 | 0.00 | 0.00 | 29 | 1009.6 |
| 20260504184048 | 63 | 0 | 0.9 | 8.7 | 0.00 | 0.00 | 0.00 | 29 | 1009.4 |
| 20260504183545 | 63 | 0 | 1.7 | 13.0 | 0.00 | 0.00 | 0.00 | 29 | 1009.4 |
| 20260504183100 | 63 | 300 | 4.3 | 13.0 | 0.00 | 0.00 | 0.00 | 29 | 1009.4 |
| 20260504182547 | 63 | 293 | 2.6 | 9.6 | 0.00 | 0.00 | 0.00 | 29 | 1009.5 |
| 20260504182048 | 62 | 0 | 1.7 | 9.6 | 0.00 | 0.00 | 0.00 | 29 | 1009.6 |
| 20260504181553 | 62 | 0 | 2.6 | 9.6 | 0.00 | 0.00 | 0.00 | 30 | 1009.7 |
| 20260504181048 | 62 | 296 | 0.9 | 12.2 | 0.00 | 0.00 | 0.00 | 30 | 1009.7 |
| 20260504180548 | 62 | 297 | 3.5 | 12.2 | 0.00 | 0.00 | 0.00 | 30 | 1009.7 |
| 20260504180131 | 61 | 306 | 4.3 | 11.3 | 0.00 | 0.00 | 0.00 | 30 | 1009.8 |
| 20260504175547 | 61 | 270 | 4.3 | 12.2 | 0.00 | 0.00 | 0.00 | 30 | 1009.9 |
| 20260504175047 | 61 | 273 | 5.2 | 12.2 | 0.00 | 0.00 | 0.00 | 30 | 1009.9 |
| 20260504174551 | 61 | 275 | 2.6 | 9.6 | 0.00 | 0.00 | 0.00 | 30 | 1009.9 |
| 20260504174047 | 61 | 265 | 4.3 | 12.2 | 0.00 | 0.00 | 0.00 | 30 | 1010.0 |
| 20260504173547 | 61 | 0 | 7.0 | 13.9 | 0.00 | 0.00 | 0.00 | 30 | 1010.1 |
| 20260504173052 | 61 | 247 | 6.1 | 13.9 | 0.00 | 0.00 | 0.00 | 30 | 1010.1 |
| 20260504172547 | 61 | 259 | 3.5 | 10.4 | 0.00 | 0.00 | 0.00 | 30 | 1010.1 |
| 20260504172047 | 61 | 0 | 0.9 | 7.0 | 0.00 | 0.00 | 0.00 | 30 | 1009.9 |
| 20260504171600 | 61 | 296 | 0.9 | 9.6 | 0.00 | 0.00 | 0.00 | 30 | 1010.0 |
| 20260504171047 | 61 | 299 | 2.6 | 13.0 | 0.00 | 0.00 | 0.00 | 30 | 1010.1 |
| 20260504170547 | 61 | 303 | 7.0 | 13.0 | 0.00 | 0.00 | 0.00 | 30 | 1009.9 |
| 20260504151048 | 60 | 0 | 4.3 | 9.6 | 0.00 | 0.00 | 0.00 | 27 | 1010.3 |
| 20260504150547 | 60 | 0 | 1.7 | 9.6 | 0.00 | 0.00 | 0.00 | 27 | 1010.4 |
| 20260504150106 | 60 | 319 | 1.7 | 8.7 | 0.00 | 0.00 | 0.00 | 27 | 1010.4 |
| 20260504141047 | 59 | 319 | 1.7 | 7.8 | 0.00 | 0.00 | 0.00 | 25 | 1010.7 |
| 20260504140547 | 59 | 323 | 3.5 | 8.7 | 0.00 | 0.00 | 0.00 | 24 | 1010.6 |
| 20260504130547 | 57 | 347 | 3.5 | 10.4 | 0.00 | 0.00 | 0.00 | 22 | 1010.4 |
| 20260504120105 | 50 | 0 | 1.7 | 3.5 | 0.00 | 0.00 | 0.00 | 28 | 1009.9 |
| 20260504110552 | 50 | 0 | 0.0 | 0.0 | 0.00 | 0.00 | 0.00 | 27 | 1010.1 |
| 20260504100550 | 49 | 0 | 0.0 | 0.0 | 0.00 | 0.00 | 0.00 | 30 | 1010.3 |
| 20260504100111 | 49 | 0 | 0.0 | 0.0 | 0.00 | 0.00 | 0.00 | 30 | 1010.3 |
| 20260504081551 | 51 | 0 | 0.0 | 0.9 | 0.00 | 0.00 | 0.00 | 26 | 1011.2 |
| 20260504081047 | 51 | 0 | 0.0 | 0.0 | 0.00 | 0.00 | 0.00 | 27 | 1011.4 |
| 20260504080547 | 51 | 0 | 0.0 | 0.0 | 0.00 | 0.00 | 0.00 | 28 | 1011.5 |
| 20260504080105 | 51 | 0 | 0.0 | 0.0 | 0.00 | 0.00 | 0.00 | 28 | 1011.4 |
| 20260504060103 | 54 | 0 | 0.0 | 0.0 | 0.00 | 0.00 | 0.00 | 29 | 1012.3 |
| 20260504050547 | 56 | 0 | 0.0 | 3.5 | 0.00 | 0.00 | 0.00 | 26 | 1012.4 |
| 20260504050119 | 56 | 0 | 0.0 | 4.3 | 0.00 | 0.00 | 0.00 | 27 | 1012.5 |
| 20260504045546 | 55 | 297 | 1.7 | 7.0 | 0.00 | 0.00 | 0.00 | 27 | 1012.5 |
| 20260504045048 | 55 | 297 | 1.7 | 7.0 | 0.00 | 0.00 | 0.00 | 28 | 1012.5 |
| 20260504044553 | 55 | 297 | 0.0 | 3.5 | 0.00 | 0.00 | 0.00 | 29 | 1012.7 |
| 20260504044048 | 56 | 0 | 0.0 | 2.6 | 0.00 | 0.00 | 0.00 | 29 | 1012.7 |
| 20260504043549 | 57 | 0 | 0.0 | 2.6 | 0.00 | 0.00 | 0.00 | 28 | 1012.8 |
| 20260504043100 | 57 | 0 | 0.0 | 2.6 | 0.00 | 0.00 | 0.00 | 26 | 1012.7 |
| 20260504042547 | 57 | 297 | 0.0 | 3.5 | 0.00 | 0.00 | 0.00 | 25 | 1012.6 |
| 20260504042049 | 58 | 0 | 0.0 | 3.5 | 0.00 | 0.00 | 0.00 | 26 | 1012.5 |
| 20260504041557 | 58 | 297 | 0.0 | 0.9 | 0.00 | 0.00 | 0.00 | 26 | 1012.6 |
| 20260504041048 | 58 | 0 | 0.0 | 0.0 | 0.00 | 0.00 | 0.00 | 27 | 1012.7 |
| 20260504040548 | 58 | 0 | 0.0 | 0.0 | 0.00 | 0.00 | 0.00 | 26 | 1012.6 |
| 20260504040105 | 58 | 0 | 0.0 | 1.7 | 0.00 | 0.00 | 0.00 | 26 | 1012.7 |
| 20260504035547 | 58 | 0 | 0.0 | 1.7 | 0.00 | 0.00 | 0.00 | 26 | 1012.6 |
| 20260504035049 | 58 | 0 | 0.0 | 2.6 | 0.00 | 0.00 | 0.00 | 26 | 1012.7 |
| 20260504034610 | 58 | 0 | 0.0 | 3.5 | 0.00 | 0.00 | 0.00 | 26 | 1012.7 |
| 20260504034046 | 59 | 0 | 0.9 | 3.5 | 0.00 | 0.00 | 0.00 | 26 | 1012.7 |
| 20260504033549 | 59 | 0 | 0.0 | 0.0 | 0.00 | 0.00 | 0.00 | 26 | 1012.7 |
| 20260504033104 | 60 | 0 | 0.0 | 0.0 | 0.00 | 0.00 | 0.00 | 25 | 1012.7 |
| 20260504032548 | 60 | 0 | 0.0 | 2.6 | 0.00 | 0.00 | 0.00 | 25 | 1012.7 |
| 20260504032052 | 60 | 0 | 0.0 | 4.3 | 0.00 | 0.00 | 0.00 | 24 | 1012.7 |
| 20260504031557 | 61 | 297 | 0.9 | 4.3 | 0.00 | 0.00 | 0.00 | 24 | 1012.5 |
| 20260504031047 | 61 | 0 | 0.0 | 1.7 | 0.00 | 0.00 | 0.00 | 24 | 1012.6 |
| 20260504030548 | 61 | 0 | 0.0 | 0.0 | 0.00 | 0.00 | 0.00 | 24 | 1012.5 |
| 20260504030050 | 61 | 0 | 0.0 | 0.9 | 0.00 | 0.00 | 0.00 | 24 | 1012.5 |
| 20260504025547 | 61 | 0 | 0.0 | 4.3 | 0.00 | 0.00 | 0.00 | 23 | 1012.4 |
| 20260504025048 | 61 | 0 | 0.0 | 6.1 | 0.00 | 0.00 | 0.00 | 23 | 1012.3 |
| 20260504024559 | 61 | 297 | 2.6 | 7.0 | 0.00 | 0.00 | 0.00 | 23 | 1012.3 |
| 20260504024047 | 61 | 297 | 2.6 | 7.0 | 0.00 | 0.00 | 0.00 | 23 | 1012.2 |
| 20260504023547 | 62 | 296 | 2.6 | 7.0 | 0.00 | 0.00 | 0.00 | 24 | 1012.3 |
| 20260504023051 | 62 | 296 | 3.5 | 8.7 | 0.00 | 0.00 | 0.00 | 24 | 1012.3 |